Time;durP1;ratioP1;P1;durP2;ratioP2;P2;SDS_P1;SDS_P2;PMS_P1;PMS_P2;Temp;Humidity;BMP_temperature;BMP_pressure;BME280_temperature;BME280_humidity;BME280_pressure;Samples;Min_cycle;Max_cycle;Signal;HPM_P1;HPM_P2
2022/09/11 00:02:05;;;;;;;12.18;5.88;;;;;;;15.83;62.36;100683.22;5091600;28;20055;-70
2022/09/11 00:04:32;;;;;;;12.25;6.15;;;;;;;15.55;63.51;100686.69;5091128;28;20040;-71
2022/09/11 00:06:58;;;;;;;14.48;6.47;;;;;;;15.64;63.23;100688.25;5092527;28;20058;-71
2022/09/11 00:09:25;;;;;;;14.77;6.50;;;;;;;15.74;62.95;100684.38;5066330;28;20052;-72
2022/09/11 00:11:52;;;;;;;11.43;5.78;;;;;;;15.71;63.04;100678.34;5085603;28;20051;-72
2022/09/11 00:14:18;;;;;;;15.05;6.15;;;;;;;15.77;62.64;100686.69;5089091;28;20400;-71
2022/09/11 00:16:46;;;;;;;14.63;6.45;;;;;;;15.44;63.93;100695.31;5091127;28;20069;-70
2022/09/11 00:19:17;;;;;;;18.60;6.43;;;;;;;15.41;64.12;100696.53;5080994;28;20062;-70
2022/09/11 00:21:45;;;;;;;15.45;5.57;;;;;;;15.70;63.21;100692.03;5090667;28;20051;-70
2022/09/11 00:24:11;;;;;;;15.15;5.78;;;;;;;15.40;64.04;100688.63;5076413;28;20472;-70
2022/09/11 00:26:39;;;;;;;13.13;6.05;;;;;;;15.33;64.39;100701.22;5090536;28;20066;-70
2022/09/11 00:29:06;;;;;;;10.35;5.60;;;;;;;15.17;64.92;100695.03;5090576;28;20152;-70
2022/09/11 00:31:33;;;;;;;10.07;5.05;;;;;;;15.15;65.06;100690.84;5064742;28;20048;-70
2022/09/11 00:34:00;;;;;;;11.75;5.07;;;;;;;15.09;65.33;100688.91;5091047;28;20052;-70
2022/09/11 00:36:30;;;;;;;15.90;5.97;;;;;;;15.41;64.26;100690.28;5091253;28;20044;-71
2022/09/11 00:38:58;;;;;;;12.73;6.32;;;;;;;15.19;64.88;100695.69;5091078;28;20400;-70
2022/09/11 00:41:38;;;;;;;10.40;6.13;;;;;;;15.16;64.99;100693.38;5091371;28;20134;-70
2022/09/11 00:44:26;;;;;;;12.20;5.80;;;;;;;15.06;65.43;100697.41;5081086;28;20052;-69
2022/09/11 00:46:55;;;;;;;15.00;6.03;;;;;;;15.04;65.41;100694.03;5091527;28;20055;-69
2022/09/11 00:49:29;;;;;;;11.05;5.88;;;;;;;15.00;65.72;100688.19;5091138;28;20043;-71
2022/09/11 00:52:07;;;;;;;13.13;6.32;;;;;;;15.05;65.47;100696.56;5092793;28;20039;-70
2022/09/11 00:54:40;;;;;;;11.68;6.25;;;;;;;15.07;65.42;100694.50;5052366;28;20045;-70
2022/09/11 00:57:08;;;;;;;11.27;6.35;;;;;;;15.05;65.45;100696.56;5071489;28;20045;-70
2022/09/11 00:59:38;;;;;;;10.95;5.72;;;;;;;15.05;65.57;100693.00;5071678;28;20052;-70
2022/09/11 01:02:11;;;;;;;17.90;6.85;;;;;;;15.00;65.60;100701.69;5075994;28;20052;-70
2022/09/11 01:04:37;;;;;;;11.05;6.63;;;;;;;15.00;65.43;100699.00;5081756;28;20055;-70
2022/09/11 01:07:32;;;;;;;14.35;6.93;;;;;;;14.97;65.59;100700.19;5091419;28;20496;-70
2022/09/11 01:09:59;;;;;;;19.08;7.38;;;;;;;15.04;65.48;100700.28;5093189;28;20047;-70
2022/09/11 01:12:56;;;;;;;15.20;6.72;;;;;;;15.07;65.34;100699.91;5091584;28;20040;-69
2022/09/11 01:15:34;;;;;;;12.75;6.88;;;;;;;15.06;65.31;100698.25;5074823;28;20044;-70
2022/09/11 01:18:13;;;;;;;17.98;6.80;;;;;;;15.07;65.38;100690.97;5089975;28;20044;-70
2022/09/11 01:21:26;;;;;;;14.90;6.60;;;;;;;14.98;65.55;100691.09;5092261;28;20054;-70
2022/09/11 01:24:22;;;;;;;16.48;6.88;;;;;;;14.97;65.43;100702.91;5091484;28;20052;-70
2022/09/11 01:26:49;;;;;;;16.08;7.07;;;;;;;14.96;65.43;100700.41;5091061;28;20044;-70
2022/09/11 01:29:21;;;;;;;17.38;7.15;;;;;;;14.96;65.36;100695.84;5092665;28;20044;-70
2022/09/11 01:32:15;;;;;;;14.00;6.90;;;;;;;14.92;65.39;100697.25;5087479;28;20078;-70
2022/09/11 01:34:56;;;;;;;14.27;6.32;;;;;;;14.93;65.40;100698.91;5084002;28;20043;-70
2022/09/11 01:37:37;;;;;;;13.55;7.32;;;;;;;14.90;65.42;100703.84;5094795;28;20044;-70
2022/09/11 01:40:15;;;;;;;21.08;7.80;;;;;;;14.88;65.47;100693.25;5095877;28;20067;-70
2022/09/11 01:42:44;;;;;;;12.70;6.82;;;;;;;14.88;65.36;100703.22;5094670;28;20048;-70
2022/09/11 01:45:15;;;;;;;11.40;6.93;;;;;;;14.91;65.30;100700.13;5095919;28;20058;-70
2022/09/11 01:47:45;;;;;;;11.38;6.38;;;;;;;14.85;65.48;100701.72;5093279;28;20044;-70
2022/09/11 01:50:14;;;;;;;13.95;7.22;;;;;;;14.82;65.62;100703.97;5094285;28;20066;-70
2022/09/11 01:52:50;;;;;;;16.65;7.18;;;;;;;14.85;65.46;100709.00;5093790;28;20044;-70
2022/09/11 01:55:21;;;;;;;16.13;7.00;;;;;;;14.75;65.68;100701.19;5086958;28;20400;-70
2022/09/11 01:57:57;;;;;;;12.32;6.53;;;;;;;14.76;65.84;100705.56;5091453;28;20056;-70
2022/09/11 02:00:24;;;;;;;13.88;6.97;;;;;;;14.67;65.85;100710.19;5082227;28;20059;-70
2022/09/11 02:02:58;;;;;;;9.52;6.55;;;;;;;14.64;66.11;100715.97;5095234;28;20044;-70
2022/09/11 02:05:55;;;;;;;14.05;6.38;;;;;;;14.62;66.18;100700.97;5085340;28;20044;-70
2022/09/11 02:08:51;;;;;;;14.27;7.28;;;;;;;14.58;66.40;100705.91;5111613;28;20047;-70
2022/09/11 02:11:19;;;;;;;14.10;6.65;;;;;;;14.57;66.14;100709.66;5113328;28;20047;-70
2022/09/11 02:14:05;;;;;;;16.15;6.70;;;;;;;14.65;66.24;100712.22;5114319;28;20047;-70
2022/09/11 02:16:58;;;;;;;13.95;6.82;;;;;;;14.62;66.16;100709.06;5115326;28;20047;-70
2022/09/11 02:19:28;;;;;;;13.38;7.05;;;;;;;14.58;66.20;100711.31;5042503;28;20059;-70
2022/09/11 02:21:57;;;;;;;11.98;6.07;;;;;;;14.52;66.17;100710.19;5086100;28;20041;-70
2022/09/11 02:24:25;;;;;;;10.93;6.65;;;;;;;14.53;66.41;100709.19;5089050;28;20055;-70
2022/09/11 02:26:59;;;;;;;12.00;6.57;;;;;;;14.53;66.36;100719.13;5095629;28;20044;-70
2022/09/11 02:29:26;;;;;;;11.63;6.10;;;;;;;14.50;66.33;100708.72;5081379;28;20055;-70
2022/09/11 02:31:53;;;;;;;11.63;6.65;;;;;;;14.49;66.34;100712.41;5117920;28;20494;-70
2022/09/11 02:34:31;;;;;;;11.13;6.32;;;;;;;14.48;66.39;100708.06;5117909;28;20051;-70
2022/09/11 02:37:25;;;;;;;14.20;7.43;;;;;;;14.46;66.42;100716.34;5116363;28;20043;-70
2022/09/11 02:40:11;;;;;;;12.70;6.72;;;;;;;14.41;66.51;100716.06;5115269;28;20048;-70
2022/09/11 02:42:44;;;;;;;11.57;6.53;;;;;;;14.40;66.58;100716.25;5100192;28;20044;-70
2022/09/11 02:45:27;;;;;;;13.65;6.88;;;;;;;14.39;66.65;100712.72;5083788;28;20051;-70
2022/09/11 02:48:14;;;;;;;12.40;7.40;;;;;;;14.41;66.50;100718.75;5094405;28;20047;-70
2022/09/11 02:50:46;;;;;;;14.75;8.07;;;;;;;14.42;66.25;100716.88;5093826;28;20048;-70
2022/09/11 02:53:25;;;;;;;12.13;6.53;;;;;;;14.42;66.41;100724.97;5093735;28;20047;-70
2022/09/11 02:56:03;;;;;;;11.50;6.15;;;;;;;14.34;66.52;100725.09;5091975;28;20052;-70
2022/09/11 02:58:33;;;;;;;14.82;6.25;;;;;;;14.39;66.43;100737.00;5073969;28;20040;-70
2022/09/11 03:01:01;;;;;;;14.30;6.70;;;;;;;14.28;66.49;100730.19;5077964;28;20483;-70
2022/09/11 03:03:36;;;;;;;11.68;6.40;;;;;;;14.22;66.63;100727.38;5096475;28;20043;-70
2022/09/11 03:06:03;;;;;;;11.50;6.43;;;;;;;14.25;66.45;100725.19;5090154;28;20044;-70
2022/09/11 03:08:31;;;;;;;9.65;5.97;;;;;;;14.24;66.41;100730.75;5093145;28;20063;-70
2022/09/11 03:10:57;;;;;;;11.77;6.55;;;;;;;14.26;66.38;100734.94;5094322;28;20416;-70
2022/09/11 03:13:24;;;;;;;10.82;6.13;;;;;;;14.22;66.55;100732.78;5093887;28;20048;-70
2022/09/11 03:15:50;;;;;;;17.30;7.00;;;;;;;14.18;66.59;100735.00;5094219;28;20503;-70
2022/09/11 03:18:17;;;;;;;10.20;6.40;;;;;;;14.14;66.77;100736.41;5093604;28;20055;-70
2022/09/11 03:20:48;;;;;;;11.00;6.57;;;;;;;14.18;66.94;100744.97;5093318;28;20048;-70
2022/09/11 03:23:15;;;;;;;13.85;7.03;;;;;;;14.10;66.94;100745.88;5094143;28;20059;-70
2022/09/11 03:25:41;;;;;;;10.23;6.55;;;;;;;14.22;66.30;100746.25;5093212;28;20048;-70
2022/09/11 03:28:08;;;;;;;14.82;8.15;;;;;;;14.24;66.32;100749.63;5092260;28;20054;-69
2022/09/11 03:30:34;;;;;;;15.65;9.43;;;;;;;14.16;66.65;100760.50;5093914;28;20109;-70
2022/09/11 03:33:01;;;;;;;15.02;9.90;;;;;;;14.10;66.82;100756.69;5082284;28;20519;-70
2022/09/11 03:35:28;;;;;;;12.75;9.38;;;;;;;14.11;66.70;100760.22;5090241;28;20503;-70
2022/09/11 03:37:54;;;;;;;15.68;10.50;;;;;;;14.15;66.59;100759.69;5092948;28;20040;-70
2022/09/11 03:40:21;;;;;;;17.90;10.20;;;;;;;14.24;66.15;100763.13;5091158;28;20048;-70
2022/09/11 03:42:47;;;;;;;17.35;10.63;;;;;;;14.20;66.03;100762.66;5093925;28;20044;-70
2022/09/11 03:45:15;;;;;;;13.10;9.68;;;;;;;14.16;65.96;100771.31;5094977;28;20063;-70
2022/09/11 03:47:41;;;;;;;13.15;8.70;;;;;;;14.19;65.79;100774.47;5086151;28;20515;-70
2022/09/11 03:50:09;;;;;;;17.75;9.00;;;;;;;14.05;66.44;100786.91;5093837;28;20043;-69
2022/09/11 03:52:35;;;;;;;13.52;8.18;;;;;;;13.84;66.81;100778.66;5094447;28;20044;-70
2022/09/11 03:55:06;;;;;;;14.60;8.48;;;;;;;14.02;66.37;100776.47;5093866;28;20047;-69
2022/09/11 03:57:33;;;;;;;13.02;8.85;;;;;;;14.00;66.46;100785.75;5094431;28;20040;-69
2022/09/11 04:00:02;;;;;;;15.02;9.18;;;;;;;14.02;66.59;100784.56;5093403;28;20044;-70
2022/09/11 04:02:29;;;;;;;16.58;10.98;;;;;;;13.84;66.81;100794.84;5092858;28;20054;-69
2022/09/11 04:04:55;;;;;;;15.40;10.77;;;;;;;13.91;66.78;100800.31;5091834;28;20476;-70
2022/09/11 04:07:22;;;;;;;18.92;12.13;;;;;;;13.67;67.39;100794.06;5093398;28;20048;-70
2022/09/11 04:09:49;;;;;;;17.90;12.02;;;;;;;13.68;67.26;100794.91;5092812;28;20489;-70
2022/09/11 04:12:15;;;;;;;17.10;12.57;;;;;;;13.51;67.72;100802.25;5101515;28;20073;-70
2022/09/11 04:14:42;;;;;;;15.70;11.60;;;;;;;13.61;67.54;100800.16;5113984;28;20043;-70
2022/09/11 04:17:08;;;;;;;18.08;12.02;;;;;;;13.67;67.09;100804.03;5104428;28;20440;-70
2022/09/11 04:19:35;;;;;;;16.85;11.68;;;;;;;13.66;67.07;100803.16;5096053;28;20051;-68
2022/09/11 04:22:02;;;;;;;15.68;11.68;;;;;;;13.68;67.43;100803.84;5091116;28;20396;-69
2022/09/11 04:24:29;;;;;;;18.10;12.60;;;;;;;13.70;67.20;100803.63;5085149;28;20048;-70
2022/09/11 04:26:55;;;;;;;18.48;12.50;;;;;;;13.50;68.01;100809.50;5094454;28;20040;-70
2022/09/11 04:29:27;;;;;;;21.30;13.05;;;;;;;13.41;68.62;100807.03;5093482;28;20052;-70
2022/09/11 04:31:54;;;;;;;29.88;15.18;;;;;;;13.49;68.41;100813.22;5093100;28;20040;-70
2022/09/11 04:34:21;;;;;;;29.45;20.30;;;;;;;13.52;68.56;100803.94;5093272;28;20052;-69
2022/09/11 04:36:47;;;;;;;26.92;16.17;;;;;;;13.68;68.24;100811.91;5086159;28;20046;-69
2022/09/11 04:39:14;;;;;;;25.50;15.50;;;;;;;13.70;68.28;100814.41;5094165;28;20132;-70
2022/09/11 04:41:43;;;;;;;26.48;15.48;;;;;;;13.39;69.59;100819.81;5093692;28;20044;-70
2022/09/11 04:44:09;;;;;;;24.88;14.35;;;;;;;13.51;69.16;100813.88;5090162;28;20054;-70
2022/09/11 04:46:35;;;;;;;28.75;15.25;;;;;;;13.66;68.76;100818.50;5092871;28;20044;-70
2022/09/11 04:49:02;;;;;;;30.35;16.02;;;;;;;13.68;68.79;100816.47;5093421;28;20052;-70
2022/09/11 04:51:31;;;;;;;31.75;17.23;;;;;;;13.81;68.31;100817.59;5085998;28;20051;-70
2022/09/11 04:53:59;;;;;;;28.83;16.20;;;;;;;13.88;68.27;100814.19;5091319;28;20048;-70
2022/09/11 04:56:28;;;;;;;29.83;17.30;;;;;;;13.89;68.09;100826.66;5092940;28;20407;-70
2022/09/11 04:58:57;;;;;;;28.17;16.92;;;;;;;13.89;67.99;100824.78;5093984;28;20051;-70
2022/09/11 05:01:26;;;;;;;30.55;17.67;;;;;;;13.88;68.31;100811.50;5092574;28;20105;-70
2022/09/11 05:03:52;;;;;;;30.25;17.30;;;;;;;14.03;67.97;100820.47;5096243;28;20048;-70
2022/09/11 05:06:19;;;;;;;33.03;17.35;;;;;;;14.01;67.93;100807.19;5096055;28;20138;-70
2022/09/11 05:08:46;;;;;;;34.55;17.00;;;;;;;14.10;67.65;100805.22;5096617;28;20051;-70
2022/09/11 05:11:15;;;;;;;32.20;17.65;;;;;;;14.10;67.84;100820.59;5095904;28;20040;-70
2022/09/11 05:13:42;;;;;;;32.83;18.27;;;;;;;14.12;67.72;100818.56;5096542;28;20051;-70
2022/09/11 05:16:11;;;;;;;30.52;17.17;;;;;;;14.17;67.55;100822.38;5096212;28;20051;-70
2022/09/11 05:18:39;;;;;;;29.70;16.83;;;;;;;14.19;67.21;100828.44;5096267;28;20477;-70
2022/09/11 05:21:15;;;;;;;31.52;17.60;;;;;;;14.21;67.28;100825.53;5095402;28;20044;-69
2022/09/11 05:23:46;;;;;;;26.85;17.60;;;;;;;14.21;67.18;100817.44;5095985;28;20044;-70
2022/09/11 05:26:15;;;;;;;27.08;17.20;;;;;;;14.23;67.15;100827.06;5095461;28;20071;-69
2022/09/11 05:28:42;;;;;;;30.48;18.00;;;;;;;14.19;67.37;100824.91;5096028;28;20475;-69
2022/09/11 05:31:16;;;;;;;32.13;18.85;;;;;;;14.20;67.46;100830.09;5095995;28;20051;-70
2022/09/11 05:33:44;;;;;;;28.65;17.38;;;;;;;14.13;67.70;100831.03;5094761;28;20036;-69
2022/09/11 05:36:12;;;;;;;35.20;18.95;;;;;;;14.27;67.38;100838.31;5095689;28;20052;-70
2022/09/11 05:38:39;;;;;;;29.52;17.75;;;;;;;14.43;66.90;100842.75;5087316;28;20045;-70
2022/09/11 05:41:08;;;;;;;30.15;17.80;;;;;;;14.46;66.89;100837.81;5067773;28;20056;-70
2022/09/11 05:43:35;;;;;;;32.40;19.98;;;;;;;14.45;66.63;100849.63;5074152;28;20044;-70
2022/09/11 05:46:02;;;;;;;32.25;18.98;;;;;;;14.42;66.92;100857.25;5074932;28;20052;-70
2022/09/11 05:48:30;;;;;;;32.67;19.60;;;;;;;14.51;66.58;100858.84;5074251;28;20405;-70
2022/09/11 05:51:01;;;;;;;35.35;19.88;;;;;;;14.18;67.26;100860.97;5075093;28;20409;-70
2022/09/11 05:53:32;;;;;;;35.08;20.05;;;;;;;14.37;67.24;100868.59;5074917;28;20071;-70
2022/09/11 05:56:13;;;;;;;34.63;20.73;;;;;;;14.40;66.77;100875.50;5073969;28;20048;-70
2022/09/11 05:58:39;;;;;;;36.65;22.92;;;;;;;14.35;66.95;100878.72;5074333;28;20063;-69
2022/09/11 06:01:09;;;;;;;36.83;22.27;;;;;;;14.44;66.91;100882.19;5072160;28;20492;-70
2022/09/11 06:03:37;;;;;;;34.22;21.38;;;;;;;14.16;67.62;100901.66;5046501;28;20110;-70
2022/09/11 06:06:07;;;;;;;38.53;21.95;;;;;;;14.00;68.61;100891.78;5065638;28;20053;-70
2022/09/11 06:08:34;;;;;;;38.20;22.42;;;;;;;14.10;67.96;100901.53;5073795;28;20041;-70
2022/09/11 06:11:05;;;;;;;37.58;20.73;;;;;;;14.20;67.96;100905.66;5073195;28;20477;-70
2022/09/11 06:13:35;;;;;;;38.57;22.17;;;;;;;14.21;67.62;100901.09;5073518;28;20476;-69
2022/09/11 06:16:02;;;;;;;41.50;21.95;;;;;;;14.38;67.04;100901.81;5074136;28;20048;-69
2022/09/11 06:18:28;;;;;;;37.72;21.98;;;;;;;14.46;67.15;100902.59;5073952;28;20045;-69
2022/09/11 06:21:01;;;;;;;38.78;21.42;;;;;;;14.41;67.22;100909.56;5070310;28;20049;-70
2022/09/11 06:23:28;;;;;;;39.05;21.60;;;;;;;14.27;67.98;100909.31;5069127;28;20052;-69
2022/09/11 06:26:02;;;;;;;38.92;22.23;;;;;;;14.51;67.08;100912.84;5074825;28;20049;-70
2022/09/11 06:28:28;;;;;;;39.15;23.42;;;;;;;14.44;67.33;100920.00;5073623;28;20048;-70
2022/09/11 06:30:55;;;;;;;38.42;22.23;;;;;;;14.62;66.92;100920.50;5071822;28;20048;-70
2022/09/11 06:33:21;;;;;;;35.40;21.50;;;;;;;14.77;66.68;100924.13;5074559;28;20045;-71
2022/09/11 06:35:58;;;;;;;35.55;21.67;;;;;;;14.63;67.03;100921.34;5073203;28;20053;-71
2022/09/11 06:38:25;;;;;;;42.60;22.40;;;;;;;14.59;67.04;100922.72;5063738;28;20044;-70
2022/09/11 06:40:53;;;;;;;39.53;21.00;;;;;;;15.05;65.89;100920.81;5094797;28;20439;-70
2022/09/11 06:43:20;;;;;;;36.60;20.30;;;;;;;15.26;65.11;100925.50;5093812;28;20046;-70
2022/09/11 06:45:47;;;;;;;34.30;20.63;;;;;;;15.28;64.85;100928.84;5093528;28;20048;-70
2022/09/11 06:48:20;;;;;;;35.97;20.13;;;;;;;15.26;64.79;100922.78;5094379;28;20052;-71
2022/09/11 06:50:46;;;;;;;31.85;20.08;;;;;;;15.23;64.96;100926.69;5094251;28;20040;-70
2022/09/11 06:53:14;;;;;;;36.60;19.77;;;;;;;14.99;65.36;100930.50;5093442;28;20510;-71
2022/09/11 06:55:40;;;;;;;32.65;19.67;;;;;;;14.84;65.87;100932.31;5093339;28;20055;-71
2022/09/11 06:58:07;;;;;;;28.77;19.38;;;;;;;14.81;66.00;100931.84;5093094;28;20507;-71
2022/09/11 07:00:35;;;;;;;31.83;19.48;;;;;;;14.63;66.23;100941.06;5092437;28;20051;-71
2022/09/11 07:03:03;;;;;;;29.85;18.40;;;;;;;14.48;66.92;100937.50;5093098;28;20051;-71
2022/09/11 07:05:29;;;;;;;38.95;20.33;;;;;;;14.67;65.94;100928.06;5092716;28;20123;-71
2022/09/11 07:07:56;;;;;;;28.45;18.33;;;;;;;14.97;64.91;100935.22;5092284;28;20442;-71
2022/09/11 07:10:23;;;;;;;32.08;18.52;;;;;;;14.84;65.55;100936.88;5092528;28;20047;-70
2022/09/11 07:12:53;;;;;;;30.98;18.50;;;;;;;14.87;65.42;100941.94;5093037;28;20373;-70
2022/09/11 07:15:20;;;;;;;29.58;18.02;;;;;;;14.91;65.45;100937.81;5087851;28;20511;-71
2022/09/11 07:17:47;;;;;;;33.80;17.67;;;;;;;14.93;65.53;100938.50;5093439;28;20044;-70
2022/09/11 07:20:15;;;;;;;31.13;18.27;;;;;;;15.00;65.09;100944.84;5092132;28;20052;-70
2022/09/11 07:22:44;;;;;;;28.67;16.88;;;;;;;15.06;64.69;100946.81;5092796;28;20040;-70
2022/09/11 07:25:10;;;;;;;26.88;17.83;;;;;;;15.13;64.59;100945.06;5092055;28;20055;-71
2022/09/11 07:27:37;;;;;;;31.05;17.13;;;;;;;15.28;64.09;100938.81;5092364;28;20047;-70
2022/09/11 07:30:04;;;;;;;28.80;17.92;;;;;;;15.20;63.84;100943.28;5093308;28;20047;-70
2022/09/11 07:32:30;;;;;;;27.77;17.08;;;;;;;15.28;63.87;100936.94;5093032;28;20468;-71
2022/09/11 07:34:57;;;;;;;24.35;14.90;;;;;;;15.20;64.11;100942.44;5092495;28;20036;-71
2022/09/11 07:37:23;;;;;;;30.15;15.48;;;;;;;15.37;63.66;100946.66;5095034;28;20043;-71
2022/09/11 07:39:50;;;;;;;28.25;16.17;;;;;;;15.19;64.02;100949.72;5092623;28;20060;-71
2022/09/11 07:42:16;;;;;;;25.63;15.63;;;;;;;15.13;64.33;100947.75;5093884;28;20040;-70
2022/09/11 07:44:43;;;;;;;26.30;15.63;;;;;;;14.97;64.61;100950.59;5073992;28;20059;-71
2022/09/11 07:47:10;;;;;;;21.83;14.43;;;;;;;15.50;63.28;100946.00;5091178;28;20059;-71
2022/09/11 07:49:36;;;;;;;33.45;15.63;;;;;;;15.73;62.55;100958.59;5092607;28;20499;-71
2022/09/11 07:52:03;;;;;;;25.40;15.18;;;;;;;15.92;62.00;100941.78;5093580;28;20056;-70
2022/09/11 07:54:30;;;;;;;25.17;14.73;;;;;;;16.02;61.65;100952.28;5093411;28;20047;-70
2022/09/11 07:56:56;;;;;;;20.27;13.63;;;;;;;16.28;60.57;100952.56;5095516;28;20044;-71
2022/09/11 07:59:23;;;;;;;24.42;14.73;;;;;;;16.50;59.94;100949.88;5097641;28;20093;-71
2022/09/11 08:01:50;;;;;;;20.20;13.13;;;;;;;17.50;57.11;100955.06;5094131;28;20055;-70
2022/09/11 08:04:16;;;;;;;20.90;12.77;;;;;;;18.15;55.66;100955.56;5096479;28;20397;-70
2022/09/11 08:06:43;;;;;;;21.27;12.27;;;;;;;18.21;54.94;100949.34;5094817;28;20043;-71
2022/09/11 08:09:13;;;;;;;19.27;11.80;;;;;;;18.53;53.83;100957.75;5096964;28;20048;-71
2022/09/11 08:11:47;;;;;;;20.52;11.85;;;;;;;18.28;54.44;100958.34;5095137;28;20048;-71
2022/09/11 08:14:16;;;;;;;20.00;12.25;;;;;;;18.43;53.47;100965.47;5097995;28;20048;-71
2022/09/11 08:16:43;;;;;;;20.88;13.02;;;;;;;18.23;53.95;100968.13;5090262;28;20067;-70
2022/09/11 08:19:17;;;;;;;20.30;12.27;;;;;;;17.45;55.75;100973.00;5094802;28;20076;-70
2022/09/11 08:21:43;;;;;;;20.52;12.90;;;;;;;16.99;57.42;100971.63;5094368;28;20472;-72
2022/09/11 08:24:15;;;;;;;21.17;13.77;;;;;;;17.26;56.66;100974.50;5094136;28;20187;-70
2022/09/11 08:26:43;;;;;;;21.70;12.35;;;;;;;17.18;57.43;100983.63;5093469;28;20063;-71
2022/09/11 08:29:14;;;;;;;20.73;13.35;;;;;;;17.11;57.44;100980.84;5092863;28;20139;-71
2022/09/11 08:31:40;;;;;;;23.83;14.80;;;;;;;16.80;58.65;100980.41;5092648;28;20047;-71
2022/09/11 08:34:09;;;;;;;20.77;13.07;;;;;;;17.18;57.17;100985.50;5083524;28;20491;-70
2022/09/11 08:36:35;;;;;;;22.52;12.75;;;;;;;17.50;56.56;100986.78;5092059;28;20043;-70
2022/09/11 08:39:02;;;;;;;22.77;13.85;;;;;;;17.39;56.70;100985.47;5092729;28;20151;-70
2022/09/11 08:41:29;;;;;;;20.23;12.82;;;;;;;17.61;56.26;100991.63;5111067;28;20043;-70
2022/09/11 08:44:01;;;;;;;20.42;11.82;;;;;;;17.96;55.38;100994.31;5095347;28;20056;-72
2022/09/11 08:46:35;;;;;;;17.52;12.20;;;;;;;18.44;53.59;100997.00;5088141;28;20078;-71
2022/09/11 08:49:18;;;;;;;22.02;11.90;;;;;;;18.17;54.06;100993.38;5098840;28;20042;-71
2022/09/11 08:51:47;;;;;;;18.13;11.32;;;;;;;18.43;53.67;101000.78;5105358;28;20051;-71
2022/09/11 08:54:32;;;;;;;18.27;10.13;;;;;;;18.08;53.92;100992.69;5084194;28;20503;-71
2022/09/11 08:57:15;;;;;;;20.13;11.85;;;;;;;18.25;53.88;100994.03;5110088;28;20047;-71
2022/09/11 09:00:01;;;;;;;19.05;11.13;;;;;;;17.91;54.95;100997.66;5114017;28;20078;-71
2022/09/11 09:02:30;;;;;;;17.92;10.98;;;;;;;17.77;55.50;100998.63;5114156;28;20047;-71
2022/09/11 09:04:59;;;;;;;21.20;12.07;;;;;;;17.77;55.21;100994.03;5101524;28;20446;-71
2022/09/11 09:07:47;;;;;;;18.33;11.27;;;;;;;17.22;56.72;101001.16;5092102;28;20056;-71
2022/09/11 09:10:34;;;;;;;16.52;11.35;;;;;;;17.21;56.22;100996.78;5092895;28;20048;-71
2022/09/11 09:13:48;;;;;;;16.25;11.05;;;;;;;16.97;56.87;101003.47;5092003;28;20051;-71
2022/09/11 09:16:42;;;;;;;18.70;12.38;;;;;;;17.62;55.17;101000.66;5047981;28;20094;-71
2022/09/11 09:19:14;;;;;;;18.20;11.88;;;;;;;17.34;56.14;101004.22;5084535;28;20503;-71
2022/09/11 09:21:44;;;;;;;18.67;11.10;;;;;;;17.27;56.38;101011.44;5091814;28;20044;-71
2022/09/11 09:24:18;;;;;;;17.52;11.10;;;;;;;17.44;56.05;101012.84;5092960;28;20385;-72
2022/09/11 09:26:51;;;;;;;19.33;11.55;;;;;;;17.85;54.79;101009.28;5093634;28;20054;-71
2022/09/11 09:29:21;;;;;;;19.42;11.45;;;;;;;18.36;53.74;101014.34;5093214;28;20055;-71
2022/09/11 09:32:04;;;;;;;16.40;11.38;;;;;;;18.44;53.41;101010.59;5092764;28;20388;-71
2022/09/11 09:34:36;;;;;;;18.58;10.23;;;;;;;18.32;53.74;101015.78;5084844;28;20048;-71
2022/09/11 09:37:16;;;;;;;23.45;10.57;;;;;;;18.40;53.10;101015.59;5093929;28;20044;-70
2022/09/11 09:39:44;;;;;;;17.50;10.25;;;;;;;18.19;53.73;101013.03;5093257;28;20054;-71
2022/09/11 09:42:35;;;;;;;16.30;9.63;;;;;;;17.76;54.47;101007.81;5093279;28;20488;-71
2022/09/11 09:45:26;;;;;;;18.33;9.50;;;;;;;18.06;53.07;101005.63;5092733;28;20040;-71
2022/09/11 09:47:52;;;;;;;15.60;9.27;;;;;;;18.28;52.59;101006.38;5091910;28;20040;-71
2022/09/11 09:50:27;;;;;;;12.93;8.82;;;;;;;18.11;53.06;101007.75;5094381;28;20056;-71
2022/09/11 09:53:10;;;;;;;14.85;8.93;;;;;;;18.31;52.99;101014.97;5095992;28;20044;-71
2022/09/11 09:55:40;;;;;;;15.38;8.35;;;;;;;18.49;52.08;101003.50;5087609;28;20048;-71
2022/09/11 09:58:06;;;;;;;12.90;8.27;;;;;;;18.81;51.27;101017.34;5096642;28;20064;-71
2022/09/11 10:00:36;;;;;;;17.13;7.97;;;;;;;19.46;49.58;101007.53;5097461;28;20414;-71
2022/09/11 10:03:18;;;;;;;11.50;7.45;;;;;;;19.29;49.60;101011.75;5097268;28;20369;-71
2022/09/11 10:05:47;;;;;;;10.45;7.93;;;;;;;19.19;49.51;101014.03;5097200;28;20054;-72
2022/09/11 10:08:32;;;;;;;13.27;8.52;;;;;;;18.89;50.62;101025.28;5097851;28;20043;-71
2022/09/11 10:11:02;;;;;;;15.60;9.02;;;;;;;18.98;50.37;101024.09;5097936;28;20058;-71
2022/09/11 10:13:35;;;;;;;12.57;7.97;;;;;;;18.91;50.62;101030.53;5096613;28;20053;-71
2022/09/11 10:16:04;;;;;;;14.02;9.07;;;;;;;18.31;52.07;101031.25;5097396;28;20107;-71
2022/09/11 10:18:34;;;;;;;18.10;9.32;;;;;;;18.25;52.22;101031.22;5096006;28;20048;-71
2022/09/11 10:21:10;;;;;;;14.93;8.60;;;;;;;18.47;51.71;101021.88;5097115;28;20122;-70
2022/09/11 10:23:49;;;;;;;12.18;8.35;;;;;;;18.85;50.85;101026.75;5096353;28;20044;-71
2022/09/11 10:26:44;;;;;;;14.02;7.72;;;;;;;19.33;49.97;101015.69;5096727;28;20054;-70
2022/09/11 10:29:16;;;;;;;12.10;7.38;;;;;;;19.63;48.82;101020.69;5086083;28;20056;-71
2022/09/11 10:31:54;;;;;;;14.32;7.90;;;;;;;19.41;49.51;101014.63;5097498;28;20063;-71
2022/09/11 10:34:24;;;;;;;16.92;8.63;;;;;;;19.51;49.10;101031.38;5098556;28;20051;-72
2022/09/11 10:36:55;;;;;;;10.63;7.15;;;;;;;19.32;49.67;101015.94;5096656;28;20084;-71
2022/09/11 10:39:25;;;;;;;12.15;7.88;;;;;;;19.76;48.80;101020.66;5096856;28;20056;-71
2022/09/11 10:41:57;;;;;;;12.10;7.65;;;;;;;19.81;48.67;101020.88;5097330;28;20372;-71
2022/09/11 10:44:26;;;;;;;11.38;7.75;;;;;;;19.64;48.93;101025.06;5096989;28;20047;-71
2022/09/11 10:47:14;;;;;;;12.43;8.10;;;;;;;19.52;48.98;101032.19;5097555;28;20062;-71
2022/09/11 10:49:41;;;;;;;13.10;7.22;;;;;;;19.38;49.14;101026.81;5096668;28;20048;-71
2022/09/11 10:52:07;;;;;;;11.82;7.05;;;;;;;19.18;49.89;101032.25;5098056;28;20130;-71
2022/09/11 10:54:40;;;;;;;13.50;6.60;;;;;;;19.62;48.18;101040.75;5097315;28;20044;-72
2022/09/11 10:57:21;;;;;;;10.43;6.78;;;;;;;20.61;45.67;101032.25;5077703;28;20077;-72
2022/09/11 11:00:15;;;;;;;9.07;6.40;;;;;;;20.31;46.17;101036.59;5072203;28;20063;-71
2022/09/11 11:02:47;;;;;;;13.27;7.40;;;;;;;20.36;45.87;101039.50;5105597;28;20047;-71
2022/09/11 11:05:36;;;;;;;10.60;6.82;;;;;;;19.73;47.59;101042.88;5117776;28;20104;-71
2022/09/11 11:08:14;;;;;;;12.35;7.63;;;;;;;19.78;47.36;101037.63;5116614;28;20055;-71
2022/09/11 11:11:02;;;;;;;12.40;7.90;;;;;;;19.11;49.12;101038.75;5106233;28;20055;-71
2022/09/11 11:14:04;;;;;;;12.85;7.15;;;;;;;18.87;50.65;101040.16;5092571;28;20044;-71
2022/09/11 11:16:40;;;;;;;9.95;6.72;;;;;;;18.97;50.21;101046.06;5089673;28;20047;-72
2022/09/11 11:19:34;;;;;;;11.23;7.63;;;;;;;18.63;52.70;101034.25;5097121;28;20048;-71
2022/09/11 11:22:23;;;;;;;12.43;7.95;;;;;;;18.83;52.89;101045.19;5096167;28;20051;-71
2022/09/11 11:25:01;;;;;;;11.63;7.38;;;;;;;18.46;54.37;101033.81;5089000;28;20458;-71
2022/09/11 11:27:30;;;;;;;11.88;7.50;;;;;;;18.42;54.49;101037.97;5094937;28;20389;-71
2022/09/11 11:30:02;;;;;;;13.05;7.75;;;;;;;19.41;52.85;101041.84;5096757;28;20055;-71
2022/09/11 11:32:58;;;;;;;11.00;7.78;;;;;;;20.20;51.06;101044.38;5097700;28;20048;-71
2022/09/11 11:35:40;;;;;;;13.75;7.32;;;;;;;20.92;48.89;101045.03;5097923;28;20048;-72
2022/09/11 11:38:33;;;;;;;11.35;7.28;;;;;;;19.72;50.37;101041.19;5100427;28;20051;-71